createdAt,value
2022-12-05T00:01:42.491Z,0.13
2022-12-05T00:04:44.523Z,0.11
2022-12-05T00:07:47.821Z,0.12
2022-12-05T00:10:49.528Z,0.11
2022-12-05T00:13:53.079Z,0.11
2022-12-05T00:16:54.951Z,0.11
2022-12-05T00:19:57.153Z,0.10
2022-12-05T00:22:59.077Z,0.08
2022-12-05T00:26:04.292Z,0.07
2022-12-05T00:29:06.009Z,0.06
2022-12-05T00:32:07.809Z,0.02
2022-12-05T00:35:09.445Z,0.01
2022-12-05T00:38:11.069Z,-0.01
2022-12-05T00:41:15.877Z,-0.02
2022-12-05T00:44:17.807Z,-0.03
2022-12-05T00:47:19.497Z,-0.02
2022-12-05T00:50:21.280Z,-0.03
2022-12-05T00:53:22.949Z,-0.03
2022-12-05T00:56:25.781Z,-0.01
2022-12-05T00:59:27.436Z,-0.01
2022-12-05T01:02:30.257Z,-0.03
2022-12-05T01:05:34.502Z,-0.01
2022-12-05T01:08:36.730Z,-0.00
2022-12-05T01:11:41.455Z,-0.03
2022-12-05T01:14:43.612Z,-0.04
2022-12-05T01:17:45.132Z,-0.06
2022-12-05T01:20:47.663Z,-0.07
2022-12-05T01:23:49.604Z,-0.09
2022-12-05T01:26:51.423Z,-0.10
2022-12-05T01:29:53.512Z,-0.11
2022-12-05T01:32:55.397Z,-0.10
2022-12-05T01:35:57.114Z,-0.10
2022-12-05T01:38:59.426Z,-0.09
2022-12-05T01:42:01.184Z,-0.08
2022-12-05T01:45:05.249Z,-0.07
2022-12-05T01:48:11.759Z,-0.05
2022-12-05T01:51:13.732Z,-0.03
2022-12-05T01:54:17.080Z,0.01
2022-12-05T01:57:18.910Z,0.00
2022-12-05T02:00:21.589Z,0.02
2022-12-05T02:03:23.397Z,0.05
2022-12-05T02:06:26.399Z,0.08
2022-12-05T02:09:28.052Z,0.11
2022-12-05T02:12:29.718Z,0.10
2022-12-05T02:15:52.335Z,0.09
2022-12-05T02:19:16.132Z,0.09
2022-12-05T02:22:30.119Z,0.08
2022-12-05T02:25:38.981Z,0.08
2022-12-05T02:29:08.726Z,0.06
2022-12-05T02:32:36.529Z,0.06
2022-12-05T02:35:50.668Z,0.06
2022-12-05T02:39:03.555Z,0.09
2022-12-05T02:42:29.275Z,0.12
2022-12-05T02:45:32.541Z,0.15
2022-12-05T02:48:35.556Z,0.18
2022-12-05T02:51:47.169Z,0.21
2022-12-05T02:54:50.145Z,0.23
2022-12-05T02:57:55.596Z,0.25
2022-12-05T03:00:58.588Z,0.26
2022-12-05T03:04:04.166Z,0.27
2022-12-05T03:07:12.143Z,0.28
2022-12-05T03:10:15.318Z,0.29
2022-12-05T03:13:25.209Z,0.28
2022-12-05T03:16:32.627Z,0.29
2022-12-05T03:19:45.932Z,0.28
2022-12-05T03:23:15.631Z,0.29
2022-12-05T03:26:39.118Z,0.30
2022-12-05T03:29:56.774Z,0.30
2022-12-05T03:33:08.307Z,0.28
2022-12-05T03:36:20.189Z,0.29
2022-12-05T03:39:24.818Z,0.29
2022-12-05T03:42:32.119Z,0.29
2022-12-05T03:45:42.732Z,0.28
2022-12-05T03:48:53.920Z,0.28
2022-12-05T03:51:58.850Z,0.28
2022-12-05T03:55:07.711Z,0.27
2022-12-05T03:58:13.004Z,0.25
2022-12-05T04:01:16.898Z,0.24
2022-12-05T04:04:26.508Z,0.24
2022-12-05T04:07:29.335Z,0.24
2022-12-05T04:10:48.557Z,0.25
2022-12-05T04:13:54.783Z,0.25
2022-12-05T04:17:06.454Z,0.25
2022-12-05T04:20:38.810Z,0.26
2022-12-05T04:23:44.799Z,0.26
2022-12-05T04:26:56.930Z,0.23
2022-12-05T04:30:03.559Z,0.16
2022-12-05T04:33:10.061Z,0.16
2022-12-05T04:36:11.627Z,0.16
2022-12-05T04:39:23.105Z,0.17
2022-12-05T04:42:27.182Z,0.17
2022-12-05T04:45:30.104Z,0.20
2022-12-05T04:48:32.766Z,0.22
2022-12-05T04:51:35.876Z,0.25
2022-12-05T04:54:50.658Z,0.26
2022-12-05T04:58:01.712Z,0.28
2022-12-05T05:01:12.107Z,0.28
2022-12-05T05:04:26.334Z,0.29
2022-12-05T05:07:28.001Z,0.30
2022-12-05T05:10:37.611Z,0.29
2022-12-05T05:13:39.774Z,0.29
2022-12-05T05:16:42.476Z,0.28
2022-12-05T05:19:44.178Z,0.29
2022-12-05T05:22:48.783Z,0.29
2022-12-05T05:25:55.330Z,0.21
2022-12-05T05:28:57.996Z,-0.03
2022-12-05T05:31:59.727Z,-0.39
2022-12-05T05:35:01.239Z,-0.59
2022-12-05T05:38:03.702Z,-0.66
2022-12-05T05:41:06.655Z,-0.68
2022-12-05T05:44:08.271Z,-0.70
2022-12-05T05:47:09.944Z,-0.70
2022-12-05T05:50:16.234Z,-0.64
2022-12-05T05:53:21.379Z,-0.61
2022-12-05T05:56:23.216Z,-0.66
2022-12-05T05:59:24.810Z,-0.77
2022-12-05T06:02:26.607Z,-0.72
2022-12-05T06:05:28.215Z,-0.52
2022-12-05T06:08:33.945Z,-0.46
2022-12-05T06:11:35.707Z,-0.61
2022-12-05T06:14:37.466Z,-0.64
2022-12-05T06:17:39.086Z,-0.67
2022-12-05T06:20:40.656Z,-0.67
2022-12-05T06:23:42.488Z,-0.65
2022-12-05T06:26:44.305Z,-0.63
2022-12-05T06:29:45.988Z,-0.65
2022-12-05T06:32:48.977Z,-0.60
2022-12-05T06:36:05.120Z,-0.49
2022-12-05T06:39:06.897Z,-0.40
2022-12-05T06:42:08.446Z,-0.35
2022-12-05T06:45:10.556Z,-0.29
2022-12-05T06:48:12.458Z,-0.24
2022-12-05T06:51:16.036Z,-0.19
2022-12-05T06:54:17.717Z,-0.15
2022-12-05T06:57:19.408Z,-0.10
2022-12-05T07:00:40.013Z,-0.05
2022-12-05T07:03:44.081Z,-0.03
2022-12-05T07:06:50.503Z,-0.04
2022-12-05T07:09:54.146Z,-0.03
2022-12-05T07:12:56.688Z,-0.02
2022-12-05T07:15:59.320Z,-0.06
2022-12-05T07:19:01.351Z,-0.10
2022-12-05T07:22:03.593Z,-0.10
2022-12-05T07:25:05.620Z,-0.07
2022-12-05T07:28:08.520Z,-0.04
2022-12-05T07:31:12.389Z,-0.05
2022-12-05T07:34:14.029Z,-0.05
2022-12-05T07:37:15.676Z,-0.06
2022-12-05T07:40:17.521Z,-0.01
2022-12-05T07:43:19.146Z,0.07
2022-12-05T07:46:21.530Z,0.13
2022-12-05T07:49:23.176Z,0.19
2022-12-05T07:52:24.944Z,0.24
2022-12-05T07:55:27.290Z,0.21
2022-12-05T07:58:29.808Z,0.15
2022-12-05T08:01:31.674Z,0.32
2022-12-05T08:04:33.585Z,0.49
2022-12-05T08:07:35.795Z,0.64
2022-12-05T08:10:38.598Z,0.83
2022-12-05T08:13:40.446Z,0.95
2022-12-05T08:16:42.354Z,1.02
2022-12-05T08:19:44.184Z,1.09
2022-12-05T08:22:46.002Z,1.16
2022-12-05T08:25:47.785Z,1.19
2022-12-05T08:28:52.988Z,1.20
2022-12-05T08:31:54.892Z,1.23
2022-12-05T08:34:56.574Z,1.30
2022-12-05T08:37:58.486Z,1.35
2022-12-05T08:41:09.553Z,1.41
2022-12-05T08:44:16.187Z,1.45
2022-12-05T08:47:18.157Z,1.54
2022-12-05T08:50:19.900Z,1.65
2022-12-05T08:53:21.465Z,1.86
2022-12-05T08:56:27.214Z,2.09
2022-12-05T08:59:29.512Z,2.17
2022-12-05T09:02:31.853Z,2.06
2022-12-05T09:05:33.622Z,2.05
2022-12-05T09:08:35.734Z,2.11
2022-12-05T09:11:41.448Z,2.01
2022-12-05T09:14:43.178Z,2.06
2022-12-05T09:17:44.858Z,2.74
2022-12-05T09:20:46.525Z,3.76
2022-12-05T09:23:48.349Z,4.88
2022-12-05T09:26:50.969Z,5.65
2022-12-05T09:29:52.729Z,5.73
2022-12-05T09:32:54.865Z,6.58
2022-12-05T09:35:56.554Z,6.87
2022-12-05T09:39:04.381Z,6.70
2022-12-05T09:42:34.045Z,6.60
2022-12-05T09:45:37.826Z,6.56
2022-12-05T09:48:41.100Z,6.31
2022-12-05T09:51:45.118Z,6.11
2022-12-05T09:54:48.207Z,6.04
2022-12-05T09:57:56.962Z,6.20
2022-12-05T10:01:42.726Z,6.81
2022-12-05T10:05:15.423Z,6.72
2022-12-05T10:08:32.154Z,6.51
2022-12-05T10:12:21.952Z,6.31
2022-12-05T10:15:32.606Z,6.08
2022-12-05T10:18:41.853Z,6.47
2022-12-05T10:22:20.103Z,8.32
2022-12-05T10:25:23.198Z,9.96
2022-12-05T10:28:40.133Z,10.93
2022-12-05T10:31:43.845Z,11.52
2022-12-05T10:34:46.632Z,12.38
2022-12-05T10:37:59.656Z,13.24
2022-12-05T10:41:08.310Z,13.95
2022-12-05T10:44:10.799Z,14.57
2022-12-05T10:47:12.846Z,14.61
2022-12-05T10:50:30.505Z,14.95
2022-12-05T10:53:45.703Z,15.67
2022-12-05T10:56:49.872Z,16.03
2022-12-05T10:59:52.325Z,15.84
2022-12-05T11:02:55.019Z,15.80
2022-12-05T11:06:00.075Z,15.61
2022-12-05T11:09:18.085Z,15.31
2022-12-05T11:12:26.066Z,14.97
2022-12-05T11:15:30.498Z,14.64
2022-12-05T11:18:34.270Z,14.25
2022-12-05T11:21:42.866Z,14.01
2022-12-05T11:24:45.105Z,13.65
2022-12-05T11:27:46.860Z,13.15
2022-12-05T11:30:59.698Z,12.86
2022-12-05T11:34:23.212Z,12.66
2022-12-05T11:37:27.326Z,12.51
2022-12-05T11:40:51.073Z,12.09
2022-12-05T11:43:58.920Z,11.67
2022-12-05T11:47:28.401Z,11.19
2022-12-05T11:51:01.173Z,10.27
2022-12-05T11:54:56.322Z,9.52
2022-12-05T11:58:16.632Z,9.14
2022-12-05T12:01:38.158Z,9.09
2022-12-05T12:05:07.521Z,9.09
2022-12-05T12:08:25.193Z,9.02
2022-12-05T12:11:32.655Z,8.95
2022-12-05T12:14:54.283Z,8.95
2022-12-05T12:18:08.179Z,8.58
2022-12-05T12:21:39.063Z,8.40
2022-12-05T12:24:43.508Z,8.36
2022-12-05T12:28:05.551Z,8.16
2022-12-05T12:31:13.342Z,8.09
2022-12-05T12:34:49.670Z,7.92
2022-12-05T12:38:32.821Z,7.77
2022-12-05T12:41:49.971Z,7.75
2022-12-05T12:45:06.685Z,7.78
2022-12-05T12:48:47.526Z,7.78
2022-12-05T12:51:53.872Z,7.83
2022-12-05T12:55:10.948Z,7.88
2022-12-05T12:58:30.333Z,7.92
2022-12-05T13:01:39.525Z,7.96
2022-12-05T13:04:58.367Z,8.05
2022-12-05T13:08:04.723Z,8.18
2022-12-05T13:11:09.184Z,8.29
2022-12-05T13:14:17.916Z,8.33
2022-12-05T13:17:21.024Z,8.46
2022-12-05T13:20:26.105Z,8.55
2022-12-05T13:23:30.582Z,8.63
2022-12-05T13:26:36.709Z,8.57
2022-12-05T13:29:47.675Z,8.56
2022-12-05T13:32:56.785Z,8.61
2022-12-05T13:36:24.485Z,8.66
2022-12-05T13:39:44.970Z,8.65
2022-12-05T13:42:48.186Z,8.62
2022-12-05T13:46:03.335Z,8.61
2022-12-05T13:49:17.354Z,8.57
2022-12-05T13:52:26.558Z,8.48
2022-12-05T13:55:37.534Z,8.38
2022-12-05T13:58:48.789Z,8.27
2022-12-05T14:01:55.816Z,8.09
2022-12-05T14:04:58.185Z,7.85
2022-12-05T14:08:03.819Z,7.62
2022-12-05T14:11:09.475Z,7.45
2022-12-05T14:14:11.201Z,7.34
2022-12-05T14:17:14.260Z,7.24
2022-12-05T14:20:15.981Z,7.14
2022-12-05T14:23:31.519Z,6.93
2022-12-05T14:26:58.367Z,6.64
2022-12-05T14:30:20.389Z,6.40
2022-12-05T14:33:22.964Z,6.22
2022-12-05T14:36:30.976Z,6.05
2022-12-05T14:39:42.080Z,5.87
2022-12-05T14:42:44.568Z,5.69
2022-12-05T14:45:52.562Z,5.55
2022-12-05T14:48:56.249Z,5.40
2022-12-05T14:51:58.095Z,5.27
2022-12-05T14:55:12.044Z,5.16
2022-12-05T14:58:20.922Z,5.07
2022-12-05T15:01:26.659Z,5.00
2022-12-05T15:04:36.457Z,4.90
2022-12-05T15:07:39.125Z,4.81
2022-12-05T15:10:43.126Z,4.71
2022-12-05T15:13:44.820Z,4.58
2022-12-05T15:16:46.481Z,4.44
2022-12-05T15:19:59.530Z,4.35
2022-12-05T15:23:01.345Z,4.26
2022-12-05T15:26:30.607Z,4.17
2022-12-05T15:29:28.274Z,4.06
2022-12-05T15:32:30.288Z,3.97
2022-12-05T15:35:32.344Z,3.92
2022-12-05T15:38:33.997Z,3.87
2022-12-05T15:41:35.621Z,3.79
2022-12-05T15:44:38.454Z,3.68
2022-12-05T15:47:45.256Z,3.61
2022-12-05T15:50:51.335Z,3.56
2022-12-05T15:53:59.878Z,3.49
2022-12-05T15:57:16.367Z,3.41
2022-12-05T16:00:19.771Z,3.33
2022-12-05T16:03:28.683Z,3.23
2022-12-05T16:06:49.991Z,3.14
2022-12-05T16:09:56.310Z,3.07
2022-12-05T16:13:07.386Z,3.00
2022-12-05T16:16:13.531Z,2.82
2022-12-05T16:19:17.877Z,2.52
2022-12-05T16:22:23.728Z,2.26
2022-12-05T16:25:30.396Z,2.19
2022-12-05T16:28:33.081Z,2.14
2022-12-05T16:31:34.988Z,2.10
2022-12-05T16:34:36.768Z,1.99
2022-12-05T16:37:38.301Z,1.90
2022-12-05T16:40:46.240Z,1.92
2022-12-05T16:43:48.160Z,1.92
2022-12-05T16:46:50.348Z,1.86
2022-12-05T16:49:52.490Z,1.79
2022-12-05T16:53:21.588Z,1.72
2022-12-05T16:56:25.920Z,1.67
2022-12-05T16:59:38.545Z,1.52
2022-12-05T17:02:40.510Z,1.29
2022-12-05T17:05:42.369Z,1.08
2022-12-05T17:08:44.267Z,1.01
2022-12-05T17:11:47.390Z,0.96
2022-12-05T17:14:49.684Z,0.93
2022-12-05T17:17:51.484Z,0.87
2022-12-05T17:20:55.095Z,0.72
2022-12-05T17:23:57.415Z,0.57
2022-12-05T17:26:59.078Z,0.44
2022-12-05T17:30:01.007Z,0.26
2022-12-05T17:33:02.911Z,0.03
2022-12-05T17:36:05.105Z,-0.05
2022-12-05T17:39:06.737Z,-0.03
2022-12-05T17:42:08.612Z,0.02
2022-12-05T17:45:14.818Z,0.06
2022-12-05T17:48:16.691Z,0.05
2022-12-05T17:51:19.521Z,0.08
2022-12-05T17:54:21.488Z,0.02
2022-12-05T17:57:23.003Z,-0.07
2022-12-05T18:00:25.357Z,-0.12
2022-12-05T18:03:27.483Z,-0.04
2022-12-05T18:06:29.328Z,0.20
2022-12-05T18:09:31.179Z,0.16
2022-12-05T18:12:33.093Z,0.01
2022-12-05T18:15:38.040Z,0.00
2022-12-05T18:18:42.675Z,-0.02
2022-12-05T18:21:47.515Z,0.06
2022-12-05T18:24:49.491Z,0.27
2022-12-05T18:27:51.323Z,0.27
2022-12-05T18:31:10.636Z,0.25
2022-12-05T18:34:12.612Z,0.34
2022-12-05T18:37:16.394Z,0.39
2022-12-05T18:40:18.164Z,0.36
2022-12-05T18:43:20.024Z,0.41
2022-12-05T18:46:21.730Z,0.48
2022-12-05T18:49:24.157Z,0.53
2022-12-05T18:52:25.831Z,0.52
2022-12-05T18:55:57.999Z,0.44
2022-12-05T18:58:59.050Z,0.46
2022-12-05T19:02:01.100Z,0.64
2022-12-05T19:05:03.265Z,0.82
2022-12-05T19:08:05.201Z,0.74
2022-12-05T19:11:07.392Z,0.71
2022-12-05T19:14:10.401Z,0.84
2022-12-05T19:17:12.178Z,0.90
2022-12-05T19:20:14.028Z,0.92
2022-12-05T19:23:15.523Z,0.96
2022-12-05T19:26:17.355Z,0.97
2022-12-05T19:29:19.005Z,0.97
2022-12-05T19:32:20.608Z,0.97
2022-12-05T19:35:22.244Z,0.94
2022-12-05T19:38:24.085Z,0.98
2022-12-05T19:41:26.843Z,1.01
2022-12-05T19:44:28.536Z,0.98
2022-12-05T19:47:30.122Z,0.97
2022-12-05T19:50:32.893Z,0.95
2022-12-05T19:53:37.503Z,0.95
2022-12-05T19:56:39.917Z,0.92
2022-12-05T19:59:41.580Z,0.99
2022-12-05T20:02:45.716Z,1.04
2022-12-05T20:05:57.984Z,0.98
2022-12-05T20:08:59.884Z,0.95
2022-12-05T20:12:04.231Z,0.98
2022-12-05T20:15:06.568Z,1.05
2022-12-05T20:18:08.153Z,1.11
2022-12-05T20:21:14.390Z,1.13
2022-12-05T20:24:16.073Z,1.12
2022-12-05T20:27:18.054Z,1.11
2022-12-05T20:30:19.643Z,1.10
2022-12-05T20:33:21.338Z,1.02
2022-12-05T20:36:26.042Z,0.97
2022-12-05T20:39:29.602Z,1.08
2022-12-05T20:42:31.313Z,1.22
2022-12-05T20:45:33.845Z,1.25
2022-12-05T20:48:36.017Z,1.05
2022-12-05T20:51:41.060Z,0.92
2022-12-05T20:54:42.945Z,0.92
2022-12-05T20:57:44.773Z,1.00
2022-12-05T21:00:46.491Z,1.01
2022-12-05T21:03:50.504Z,0.97
2022-12-05T21:06:52.216Z,0.95
2022-12-05T21:09:53.895Z,0.93
2022-12-05T21:12:56.012Z,0.94
2022-12-05T21:15:57.906Z,0.98
2022-12-05T21:19:00.115Z,1.01
2022-12-05T21:22:01.889Z,1.03
2022-12-05T21:25:03.631Z,1.03
2022-12-05T21:28:05.388Z,1.06
2022-12-05T21:31:08.869Z,1.08
2022-12-05T21:34:20.593Z,1.05
2022-12-05T21:37:22.520Z,0.99
2022-12-05T21:40:24.242Z,0.97
2022-12-05T21:43:25.849Z,1.12
2022-12-05T21:46:27.884Z,1.28
2022-12-05T21:49:29.622Z,1.33
2022-12-05T21:52:33.125Z,1.11
2022-12-05T21:55:35.293Z,1.04
2022-12-05T21:58:42.442Z,1.03
2022-12-05T22:01:44.493Z,0.97
2022-12-05T22:04:46.316Z,1.05
2022-12-05T22:07:48.058Z,1.22
2022-12-05T22:10:49.733Z,1.36
2022-12-05T22:13:52.428Z,1.48
2022-12-05T22:16:54.217Z,1.59
2022-12-05T22:19:57.550Z,1.65
2022-12-05T22:22:59.348Z,1.69
2022-12-05T22:26:03.547Z,1.71
2022-12-05T22:29:05.262Z,1.74
2022-12-05T22:32:07.168Z,1.75
2022-12-05T22:35:13.882Z,1.76
2022-12-05T22:38:16.518Z,1.79
2022-12-05T22:41:21.187Z,1.81
2022-12-05T22:44:22.996Z,1.82
2022-12-05T22:47:24.622Z,1.84
2022-12-05T22:50:26.581Z,1.83
2022-12-05T22:53:28.792Z,1.81
2022-12-05T22:56:30.518Z,1.78
2022-12-05T22:59:32.031Z,1.75
2022-12-05T23:02:33.802Z,1.75
2022-12-05T23:05:39.059Z,1.76
2022-12-05T23:08:42.607Z,1.76
2022-12-05T23:11:44.302Z,1.77
2022-12-05T23:14:45.882Z,1.80
2022-12-05T23:17:48.377Z,1.83
2022-12-05T23:20:50.455Z,1.84
2022-12-05T23:23:54.593Z,1.84
2022-12-05T23:26:56.252Z,1.84
2022-12-05T23:29:58.138Z,1.82
2022-12-05T23:33:00.086Z,1.83
2022-12-05T23:36:01.867Z,1.84
2022-12-05T23:39:04.236Z,1.86
2022-12-05T23:42:09.607Z,1.88
2022-12-05T23:45:14.124Z,1.89
2022-12-05T23:48:15.741Z,1.90
2022-12-05T23:51:25.373Z,1.89
2022-12-05T23:54:27.076Z,1.84
2022-12-05T23:57:28.772Z,1.81
